4XCYN LLBS-LLMZ
Flight info
| Callsign | 4XCYN |
|---|---|
| Flight time | 0h 32m |
| Altitude | 4000 |
| Route | NCITY OMMER SOKET MYTAR TARAD ARRAD |
| Aircraft | C172/L-SD/C |
Departure
| Time | 2026-05-06 18:32 |
|---|---|
| Airport | Beersheba (Teyman) Airport (LLBS) |
Arrival
| Time | 2026-05-06 19:05 |
|---|---|
| Airport | Bar Yehuda Airfield (LLMZ) |
| Time | Latitude | Longitude | Altitude | Speed | Heading |
|---|---|---|---|---|---|
| 2026-05-06 18:20 | 31.28467 | 34.72608 | 652 ft | 0 kts | 227° |
| 2026-05-06 18:28 | 31.28451 | 34.72608 | 652 ft | 5 kts | 128° |
| 2026-05-06 18:29 | 31.28412 | 34.72652 | 653 ft | 9 kts | 137° |
| 2026-05-06 18:29 | 31.28365 | 34.72703 | 654 ft | 8 kts | 136° |
| 2026-05-06 18:29 | 31.28362 | 34.72707 | 654 ft | 0 kts | 138° |
| 2026-05-06 18:30 | 31.28345 | 34.72725 | 655 ft | 7 kts | 143° |
| 2026-05-06 18:30 | 31.28323 | 34.72727 | 656 ft | 0 kts | 212° |
| 2026-05-06 18:31 | 31.28311 | 34.72713 | 656 ft | 7 kts | 257° |
| 2026-05-06 18:32 | 31.28387 | 34.72615 | 653 ft | 32 kts | 317° |
| 2026-05-06 18:32 | 31.28692 | 34.72280 | 685 ft | 80 kts | 316° |
| 2026-05-06 18:32 | 31.29091 | 34.71828 | 990 ft | 79 kts | 316° |
| 2026-05-06 18:32 | 31.29486 | 34.71399 | 1281 ft | 79 kts | 328° |
| 2026-05-06 18:33 | 31.30022 | 34.71357 | 1530 ft | 84 kts | 19° |
| 2026-05-06 18:33 | 31.30533 | 34.71654 | 1812 ft | 83 kts | 30° |
| 2026-05-06 18:33 | 31.30945 | 34.72146 | 2060 ft | 87 kts | 62° |
| 2026-05-06 18:33 | 31.31228 | 34.72773 | 2305 ft | 89 kts | 59° |
| 2026-05-06 18:34 | 31.31405 | 34.73435 | 2498 ft | 83 kts | 89° |
| 2026-05-06 18:34 | 31.31193 | 34.74091 | 2527 ft | 98 kts | 129° |
| 2026-05-06 18:34 | 31.30667 | 34.74666 | 2572 ft | 100 kts | 130° |
| 2026-05-06 18:34 | 31.30347 | 34.75332 | 2544 ft | 94 kts | 111° |
| 2026-05-06 18:35 | 31.30164 | 34.76069 | 2531 ft | 94 kts | 105° |
| 2026-05-06 18:35 | 31.29959 | 34.76793 | 2594 ft | 93 kts | 114° |
| 2026-05-06 18:35 | 31.29615 | 34.77464 | 2577 ft | 96 kts | 126° |
| 2026-05-06 18:35 | 31.29274 | 34.78122 | 2522 ft | 90 kts | 117° |
| 2026-05-06 18:36 | 31.28989 | 34.78786 | 2556 ft | 89 kts | 120° |
| 2026-05-06 18:36 | 31.28553 | 34.79359 | 2590 ft | 96 kts | 140° |
| 2026-05-06 18:36 | 31.28037 | 34.79828 | 2544 ft | 92 kts | 144° |
| 2026-05-06 18:36 | 31.27492 | 34.80202 | 2498 ft | 91 kts | 165° |
| 2026-05-06 18:37 | 31.26858 | 34.80294 | 2523 ft | 93 kts | 166° |
| 2026-05-06 18:37 | 31.26455 | 34.80471 | 2520 ft | 90 kts | 154° |
| 2026-05-06 18:37 | 31.25730 | 34.80947 | 2536 ft | 94 kts | 145° |
| 2026-05-06 18:37 | 31.25264 | 34.81482 | 2531 ft | 92 kts | 126° |
| 2026-05-06 18:38 | 31.24953 | 34.82128 | 2518 ft | 90 kts | 116° |
| 2026-05-06 18:38 | 31.24686 | 34.82793 | 2528 ft | 92 kts | 114° |
| 2026-05-06 18:38 | 31.24423 | 34.83486 | 2506 ft | 95 kts | 115° |
| 2026-05-06 18:38 | 31.24141 | 34.84158 | 2755 ft | 86 kts | 115° |
| 2026-05-06 18:39 | 31.23878 | 34.84797 | 2945 ft | 94 kts | 114° |
| 2026-05-06 18:39 | 31.23595 | 34.85515 | 2982 ft | 95 kts | 115° |
| 2026-05-06 18:39 | 31.23322 | 34.86225 | 2999 ft | 96 kts | 110° |
| 2026-05-06 18:40 | 31.23230 | 34.87773 | 3228 ft | 98 kts | 77° |
| 2026-05-06 18:40 | 31.23489 | 34.88506 | 3202 ft | 97 kts | 61° |
| 2026-05-06 18:40 | 31.23833 | 34.89214 | 3104 ft | 101 kts | 60° |
| 2026-05-06 18:40 | 31.24170 | 34.89912 | 3087 ft | 92 kts | 62° |
| 2026-05-06 18:41 | 31.24474 | 34.90562 | 3079 ft | 92 kts | 59° |
| 2026-05-06 18:41 | 31.24804 | 34.91191 | 3114 ft | 94 kts | 57° |
| 2026-05-06 18:41 | 31.25151 | 34.91848 | 3015 ft | 98 kts | 61° |
| 2026-05-06 18:41 | 31.25458 | 34.92505 | 2973 ft | 89 kts | 61° |
| 2026-05-06 18:42 | 31.25756 | 34.93179 | 2968 ft | 96 kts | 63° |
| 2026-05-06 18:42 | 31.26053 | 34.93852 | 2988 ft | 91 kts | 62° |
| 2026-05-06 18:42 | 31.26341 | 34.94506 | 3050 ft | 91 kts | 62° |
| 2026-05-06 18:42 | 31.26617 | 34.95161 | 3186 ft | 86 kts | 70° |
| 2026-05-06 18:43 | 31.26667 | 34.95840 | 3417 ft | 87 kts | 100° |
| 2026-05-06 18:43 | 31.26488 | 34.96513 | 3571 ft | 87 kts | 98° |
| 2026-05-06 18:43 | 31.26530 | 34.97236 | 3620 ft | 92 kts | 76° |
| 2026-05-06 18:43 | 31.26685 | 34.97966 | 3619 ft | 91 kts | 85° |
| 2026-05-06 18:44 | 31.26723 | 34.98714 | 3542 ft | 95 kts | 80° |
| 2026-05-06 18:44 | 31.26891 | 34.99470 | 3509 ft | 96 kts | 77° |
| 2026-05-06 18:44 | 31.26991 | 35.00226 | 3488 ft | 94 kts | 94° |
| 2026-05-06 18:44 | 31.26829 | 35.00973 | 3506 ft | 96 kts | 107° |
| 2026-05-06 18:45 | 31.26635 | 35.01714 | 3508 ft | 93 kts | 107° |
| 2026-05-06 18:45 | 31.26434 | 35.02422 | 3509 ft | 93 kts | 109° |
| 2026-05-06 18:45 | 31.26240 | 35.03148 | 3528 ft | 94 kts | 107° |
| 2026-05-06 18:45 | 31.26111 | 35.03649 | 3528 ft | 97 kts | 107° |
| 2026-05-06 18:46 | 31.25855 | 35.04640 | 3514 ft | 93 kts | 107° |
| 2026-05-06 18:46 | 31.25668 | 35.05362 | 3524 ft | 93 kts | 107° |
| 2026-05-06 18:46 | 31.25478 | 35.06099 | 3524 ft | 94 kts | 107° |
| 2026-05-06 18:46 | 31.25280 | 35.06826 | 3495 ft | 94 kts | 108° |
| 2026-05-06 18:47 | 31.25085 | 35.07558 | 3487 ft | 96 kts | 107° |
| 2026-05-06 18:47 | 31.24877 | 35.08311 | 3466 ft | 96 kts | 109° |
| 2026-05-06 18:47 | 31.24651 | 35.09053 | 3503 ft | 95 kts | 109° |
| 2026-05-06 18:47 | 31.24428 | 35.09776 | 3502 ft | 95 kts | 108° |
| 2026-05-06 18:48 | 31.24236 | 35.10509 | 3497 ft | 94 kts | 107° |
| 2026-05-06 18:48 | 31.24042 | 35.11247 | 3517 ft | 93 kts | 107° |
| 2026-05-06 18:48 | 31.23845 | 35.11977 | 3531 ft | 95 kts | 107° |
| 2026-05-06 18:48 | 31.23779 | 35.12739 | 3558 ft | 96 kts | 73° |
| 2026-05-06 18:49 | 31.24207 | 35.13336 | 3544 ft | 95 kts | 36° |
| 2026-05-06 18:49 | 31.24740 | 35.13781 | 3534 ft | 97 kts | 35° |
| 2026-05-06 18:49 | 31.25287 | 35.14255 | 3498 ft | 99 kts | 37° |
| 2026-05-06 18:49 | 31.25830 | 35.14729 | 3526 ft | 95 kts | 37° |
| 2026-05-06 18:50 | 31.26277 | 35.15253 | 3462 ft | 92 kts | 57° |
| 2026-05-06 18:50 | 31.26516 | 35.15978 | 3373 ft | 98 kts | 80° |
| 2026-05-06 18:50 | 31.26514 | 35.16764 | 3307 ft | 96 kts | 97° |
| 2026-05-06 18:50 | 31.26488 | 35.17519 | 3473 ft | 91 kts | 87° |
| 2026-05-06 18:51 | 31.26458 | 35.18269 | 3482 ft | 91 kts | 94° |
| 2026-05-06 18:51 | 31.26409 | 35.18993 | 3495 ft | 90 kts | 94° |
| 2026-05-06 18:51 | 31.26370 | 35.19761 | 3522 ft | 95 kts | 92° |
| 2026-05-06 18:51 | 31.26346 | 35.20520 | 3540 ft | 92 kts | 88° |
| 2026-05-06 18:52 | 31.26469 | 35.21283 | 3564 ft | 100 kts | 71° |
| 2026-05-06 18:52 | 31.26770 | 35.22018 | 3523 ft | 97 kts | 62° |
| 2026-05-06 18:52 | 31.27090 | 35.22712 | 3489 ft | 96 kts | 62° |
| 2026-05-06 18:52 | 31.27386 | 35.23413 | 3440 ft | 96 kts | 65° |
| 2026-05-06 18:53 | 31.27678 | 35.24119 | 3561 ft | 98 kts | 62° |
| 2026-05-06 18:53 | 31.27993 | 35.24825 | 3762 ft | 97 kts | 63° |
| 2026-05-06 18:53 | 31.28298 | 35.25524 | 3916 ft | 96 kts | 63° |
| 2026-05-06 18:53 | 31.28598 | 35.26221 | 3995 ft | 96 kts | 64° |
| 2026-05-06 18:54 | 31.28880 | 35.26928 | 3972 ft | 97 kts | 65° |
| 2026-05-06 18:54 | 31.29146 | 35.27651 | 4019 ft | 96 kts | 67° |
| 2026-05-06 18:54 | 31.29410 | 35.28390 | 4006 ft | 102 kts | 67° |
| 2026-05-06 18:54 | 31.29691 | 35.29176 | 3955 ft | 108 kts | 67° |
| 2026-05-06 18:55 | 31.29981 | 35.30003 | 3590 ft | 113 kts | 67° |
| 2026-05-06 18:55 | 31.30276 | 35.30790 | 3397 ft | 97 kts | 66° |
| 2026-05-06 18:55 | 31.30535 | 35.31519 | 3180 ft | 98 kts | 67° |
| 2026-05-06 18:55 | 31.30675 | 35.32297 | 2889 ft | 101 kts | 86° |
| 2026-05-06 18:56 | 31.30744 | 35.33120 | 2598 ft | 102 kts | 78° |
| 2026-05-06 18:56 | 31.30883 | 35.33935 | 2312 ft | 103 kts | 79° |
| 2026-05-06 18:56 | 31.31023 | 35.34745 | 2072 ft | 101 kts | 77° |
| 2026-05-06 18:56 | 31.31156 | 35.35532 | 1843 ft | 98 kts | 80° |
| 2026-05-06 18:57 | 31.31369 | 35.36270 | 1584 ft | 98 kts | 57° |
| 2026-05-06 18:57 | 31.31838 | 35.36882 | 1192 ft | 107 kts | 37° |
| 2026-05-06 18:57 | 31.32514 | 35.37288 | 757 ft | 112 kts | 22° |
| 2026-05-06 18:57 | 31.33204 | 35.37569 | 493 ft | 102 kts | 12° |
| 2026-05-06 18:58 | 31.33878 | 35.37751 | 195 ft | 99 kts | 15° |
| 2026-05-06 18:58 | 31.34548 | 35.37958 | -58 ft | 97 kts | 13° |
| 2026-05-06 18:58 | 31.35159 | 35.38147 | -224 ft | 86 kts | 15° |
| 2026-05-06 18:58 | 31.35773 | 35.38348 | -199 ft | 93 kts | 14° |
| 2026-05-06 18:59 | 31.36416 | 35.38537 | -328 ft | 94 kts | 14° |
| 2026-05-06 18:59 | 31.37041 | 35.38726 | -382 ft | 92 kts | 14° |
| 2026-05-06 18:59 | 31.37609 | 35.39016 | -352 ft | 91 kts | 43° |
| 2026-05-06 18:59 | 31.37896 | 35.39670 | -283 ft | 85 kts | 77° |
| 2026-05-06 19:00 | 31.37609 | 35.40261 | -338 ft | 90 kts | 150° |
| 2026-05-06 19:00 | 31.37022 | 35.40441 | -416 ft | 89 kts | 171° |
| 2026-05-06 19:00 | 31.36404 | 35.40541 | -364 ft | 90 kts | 170° |
| 2026-05-06 19:00 | 31.35995 | 35.40637 | -332 ft | 88 kts | 168° |
| 2026-05-06 19:01 | 31.35180 | 35.40761 | -333 ft | 93 kts | 178° |
| 2026-05-06 19:01 | 31.34548 | 35.40711 | -357 ft | 83 kts | 187° |
| 2026-05-06 19:01 | 31.33977 | 35.40615 | -390 ft | 86 kts | 189° |
| 2026-05-06 19:01 | 31.33396 | 35.40500 | -401 ft | 86 kts | 189° |
| 2026-05-06 19:02 | 31.32781 | 35.40390 | -455 ft | 90 kts | 187° |
| 2026-05-06 19:02 | 31.32204 | 35.40294 | -483 ft | 73 kts | 187° |
| 2026-05-06 19:02 | 31.31697 | 35.40188 | -526 ft | 76 kts | 192° |
| 2026-05-06 19:02 | 31.31156 | 35.40049 | -580 ft | 81 kts | 192° |
| 2026-05-06 19:03 | 31.30620 | 35.39920 | -615 ft | 76 kts | 190° |
| 2026-05-06 19:03 | 31.30170 | 35.39673 | -576 ft | 72 kts | 231° |
| 2026-05-06 19:03 | 31.30104 | 35.39124 | -561 ft | 69 kts | 286° |
| 2026-05-06 19:03 | 31.30308 | 35.38625 | -588 ft | 70 kts | 312° |
| 2026-05-06 19:04 | 31.30744 | 35.38436 | -654 ft | 69 kts | 2° |
| 2026-05-06 19:04 | 31.31208 | 35.38519 | -833 ft | 66 kts | 10° |
| 2026-05-06 19:04 | 31.31687 | 35.38620 | -1040 ft | 70 kts | 10° |
| 2026-05-06 19:04 | 31.32140 | 35.38717 | -1179 ft | 67 kts | 9° |
| 2026-05-06 19:05 | 31.32520 | 35.38795 | -1248 ft | 40 kts | 9° |
| 2026-05-06 19:05 | 31.32737 | 35.38839 | -1245 ft | 27 kts | 8° |
| 2026-05-06 19:05 | 31.32878 | 35.38866 | -1242 ft | 10 kts | 8° |
| 2026-05-06 19:05 | 31.32932 | 35.38837 | -1242 ft | 7 kts | 321° |
| 2026-05-06 19:06 | 31.32955 | 35.38803 | -1239 ft | 0 kts | 316° |
| 2026-05-06 19:06 | 31.32958 | 35.38799 | -1238 ft | 2 kts | 300° |
| 2026-05-06 19:06 | 31.32953 | 35.38784 | -1237 ft | 0 kts | 214° |
| 2026-05-06 19:06 | 31.32950 | 35.38782 | -1237 ft | 0 kts | 214° |
| 2026-05-06 19:07 | 31.32947 | 35.38779 | -1237 ft | 0 kts | 214° |
| 2026-05-06 19:07 | 31.32946 | 35.38778 | -1237 ft | 0 kts | 214° |
| 2026-05-06 19:07 | 31.32942 | 35.38776 | -1237 ft | 0 kts | 214° |
| 2026-05-06 19:07 | 31.32940 | 35.38774 | -1237 ft | 0 kts | 214° |
| 2026-05-06 19:08 | 31.32940 | 35.38773 | -1237 ft | 0 kts | 215° |
| 2026-05-06 19:17 | 31.32994 | 35.38792 | -1234 ft | 0 kts | 102° |